Time;durP1;ratioP1;P1;durP2;ratioP2;P2;SDS_P1;SDS_P2;PMS_P1;PMS_P2;Temp;Humidity;BMP_temperature;BMP_pressure;BME280_temperature;BME280_humidity;BME280_pressure;Samples;Min_cycle;Max_cycle;Signal;HPM_P1;HPM_P2
2022/10/09 00:00:29;;;;;;;7.45;7.07;;;10.80;99.90;;;;;;4180931;28;20522;-82
2022/10/09 00:02:50;;;;;;;7.07;6.60;;;10.70;99.90;;;;;;4166422;28;20056;-82
2022/10/09 00:05:11;;;;;;;7.90;7.18;;;10.70;99.90;;;;;;4158601;28;20057;-82
2022/10/09 00:07:31;;;;;;;6.43;6.22;;;10.80;99.90;;;;;;4180144;28;20102;-82
2022/10/09 00:09:52;;;;;;;7.15;6.60;;;10.80;99.90;;;;;;4181144;28;20048;-82
2022/10/09 00:12:12;;;;;;;5.80;5.60;;;10.80;99.90;;;;;;4179919;28;20088;-82
2022/10/09 00:14:34;;;;;;;8.48;7.93;;;10.90;99.90;;;;;;4180639;28;20048;-82
2022/10/09 00:16:54;;;;;;;7.95;7.13;;;10.90;99.90;;;;;;4180843;28;20051;-82
2022/10/09 00:19:15;;;;;;;7.72;7.30;;;10.90;99.90;;;;;;4180360;28;20565;-82
2022/10/09 00:21:35;;;;;;;7.38;6.88;;;10.80;99.90;;;;;;4180747;28;20055;-83
2022/10/09 00:23:58;;;;;;;9.35;8.50;;;10.80;99.90;;;;;;4179949;28;20099;-83
2022/10/09 00:26:20;;;;;;;7.07;6.88;;;10.70;99.90;;;;;;4179682;28;20699;-82
2022/10/09 00:28:40;;;;;;;8.60;7.97;;;10.70;99.90;;;;;;4180566;28;20095;-82
2022/10/09 00:31:04;;;;;;;8.73;8.13;;;10.70;99.90;;;;;;4165651;28;20480;-83
2022/10/09 00:33:25;;;;;;;7.97;7.28;;;10.70;99.90;;;;;;4179968;28;20569;-82
2022/10/09 00:35:47;;;;;;;8.13;7.60;;;10.80;99.90;;;;;;4172383;28;20079;-83
2022/10/09 00:38:09;;;;;;;7.03;6.63;;;10.90;99.90;;;;;;4171143;28;20107;-83
2022/10/09 00:40:30;;;;;;;7.15;6.85;;;11.00;99.90;;;;;;4164457;28;20818;-83
2022/10/09 00:42:58;;;;;;;7.28;6.95;;;10.90;99.90;;;;;;4180586;28;20464;-83
2022/10/09 00:45:21;;;;;;;6.80;6.60;;;10.90;99.90;;;;;;4178637;28;20056;-83
2022/10/09 00:47:46;;;;;;;10.15;6.90;;;10.80;99.90;;;;;;4172989;28;20124;-82
2022/10/09 00:50:16;;;;;;;6.25;5.80;;;10.80;99.90;;;;;;4180221;28;20055;-82
2022/10/09 00:52:36;;;;;;;7.20;6.80;;;10.80;99.90;;;;;;4165661;28;20173;-82
2022/10/09 00:54:59;;;;;;;7.05;6.78;;;10.70;99.90;;;;;;4165397;28;20123;-83
2022/10/09 00:57:23;;;;;;;6.95;6.65;;;10.60;99.90;;;;;;4179393;28;20056;-82
2022/10/09 00:59:44;;;;;;;5.88;5.68;;;10.70;99.90;;;;;;4179720;28;20099;-83
2022/10/09 01:02:04;;;;;;;7.78;7.47;;;10.70;99.90;;;;;;4180636;28;20044;-83
2022/10/09 01:04:25;;;;;;;6.38;6.15;;;10.70;99.90;;;;;;4164047;28;20047;-82
2022/10/09 01:07:13;;;;;;;7.10;6.60;;;10.80;99.90;;;;;;4170429;28;20108;-82
2022/10/09 01:10:08;;;;;;;6.78;6.57;;;10.80;99.90;;;;;;4180301;28;20122;-83
2022/10/09 01:12:53;;;;;;;6.95;6.75;;;10.70;99.90;;;;;;4178695;28;20072;-83
2022/10/09 01:15:27;;;;;;;7.20;6.70;;;10.70;99.90;;;;;;4155858;28;20190;-83
2022/10/09 01:18:10;;;;;;;7.63;7.28;;;10.70;99.90;;;;;;4156637;28;20600;-83
2022/10/09 01:20:47;;;;;;;6.60;6.32;;;10.70;99.90;;;;;;4156834;28;20123;-83
2022/10/09 01:23:18;;;;;;;6.55;6.13;;;10.70;99.90;;;;;;4180181;28;20136;-82
2022/10/09 01:25:57;;;;;;;5.90;5.70;;;10.70;99.90;;;;;;4157818;28;20136;-82
2022/10/09 01:28:22;;;;;;;7.05;6.85;;;10.80;99.90;;;;;;4179077;28;20090;-83
2022/10/09 01:30:44;;;;;;;7.70;7.28;;;10.70;99.90;;;;;;4171719;28;20579;-83
2022/10/09 01:33:05;;;;;;;8.05;7.82;;;10.70;99.90;;;;;;4179199;28;20103;-83
2022/10/09 01:35:26;;;;;;;7.40;6.82;;;10.70;99.90;;;;;;4179102;28;20059;-83
2022/10/09 01:37:51;;;;;;;18.05;9.18;;;10.60;99.90;;;;;;4173451;28;20440;-83
2022/10/09 01:40:15;;;;;;;7.95;7.65;;;10.60;99.90;;;;;;4179533;28;20051;-83
2022/10/09 01:42:36;;;;;;;7.78;7.45;;;10.70;99.90;;;;;;4179808;28;20064;-82
2022/10/09 01:44:57;;;;;;;7.82;7.47;;;10.60;99.90;;;;;;4179743;28;20114;-82
2022/10/09 01:47:19;;;;;;;7.13;6.88;;;10.50;99.90;;;;;;4178321;28;20055;-82
2022/10/09 01:49:49;;;;;;;9.27;8.77;;;10.60;99.90;;;;;;4158296;28;20079;-83
2022/10/09 01:52:32;;;;;;;9.23;8.80;;;10.50;99.90;;;;;;4178012;28;20064;-82
2022/10/09 01:55:02;;;;;;;8.75;8.20;;;10.60;99.90;;;;;;4179227;28;20568;-83
2022/10/09 01:57:30;;;;;;;8.80;8.38;;;10.60;99.90;;;;;;4178725;28;20122;-82
2022/10/09 01:59:52;;;;;;;7.57;7.28;;;10.60;99.90;;;;;;4178314;28;20134;-83
2022/10/09 02:02:13;;;;;;;8.05;7.57;;;10.50;99.90;;;;;;4180014;28;20171;-83
2022/10/09 02:04:39;;;;;;;7.80;7.50;;;10.50;99.90;;;;;;4178164;28;20823;-83
2022/10/09 02:07:02;;;;;;;7.57;7.28;;;10.60;99.90;;;;;;4177877;28;20092;-82
2022/10/09 02:09:24;;;;;;;9.82;9.07;;;10.70;99.90;;;;;;4177603;28;20114;-82
2022/10/09 02:11:51;;;;;;;8.23;7.65;;;10.70;99.90;;;;;;4178586;28;20128;-82
2022/10/09 02:14:12;;;;;;;9.45;9.05;;;10.60;99.90;;;;;;4163896;28;20060;-82
2022/10/09 02:16:43;;;;;;;7.25;6.78;;;10.60;99.90;;;;;;4171592;28;20149;-82
2022/10/09 02:19:09;;;;;;;8.90;8.50;;;10.50;99.90;;;;;;4172856;28;20148;-82
2022/10/09 02:21:44;;;;;;;7.90;7.47;;;10.60;99.90;;;;;;4178616;28;20047;-82
2022/10/09 02:24:09;;;;;;;8.02;7.35;;;10.50;99.90;;;;;;4178787;28;20102;-82
2022/10/09 02:26:29;;;;;;;8.45;8.02;;;10.50;99.90;;;;;;4178075;28;20103;-82
2022/10/09 02:28:50;;;;;;;6.47;6.18;;;10.60;99.90;;;;;;4178426;28;20076;-82
2022/10/09 02:31:29;;;;;;;7.80;7.45;;;10.60;99.90;;;;;;4158239;28;20160;-83
2022/10/09 02:33:56;;;;;;;8.07;7.53;;;10.50;99.90;;;;;;4178658;28;20057;-83
2022/10/09 02:36:17;;;;;;;8.30;7.80;;;10.40;99.90;;;;;;4177823;28;20059;-82
2022/10/09 02:38:37;;;;;;;8.65;8.35;;;10.40;99.90;;;;;;4178183;28;20055;-83
2022/10/09 02:41:01;;;;;;;8.65;8.15;;;10.30;99.90;;;;;;4179074;28;20047;-83
2022/10/09 02:43:22;;;;;;;8.10;7.80;;;10.30;99.90;;;;;;4162791;28;20096;-83
2022/10/09 02:45:42;;;;;;;7.28;7.05;;;10.40;99.90;;;;;;4170285;28;20600;-83
2022/10/09 02:48:03;;;;;;;8.68;8.20;;;10.50;99.90;;;;;;4163525;28;20517;-83
2022/10/09 02:50:24;;;;;;;6.88;6.72;;;10.50;99.90;;;;;;4178933;28;20102;-83
2022/10/09 02:52:45;;;;;;;9.73;9.15;;;10.50;99.90;;;;;;4178897;28;20068;-83
2022/10/09 02:55:06;;;;;;;8.35;7.82;;;10.50;99.90;;;;;;4169905;28;20151;-83
2022/10/09 02:57:27;;;;;;;7.82;7.32;;;10.50;99.90;;;;;;4179270;28;20104;-83
2022/10/09 02:59:47;;;;;;;9.25;8.77;;;10.40;99.90;;;;;;4177757;28;20130;-83
2022/10/09 03:02:08;;;;;;;8.43;7.97;;;10.40;99.90;;;;;;4170193;28;20400;-83
2022/10/09 03:04:28;;;;;;;9.20;8.82;;;10.30;99.90;;;;;;4179032;28;20079;-82
2022/10/09 03:06:50;;;;;;;4.20;4.10;;;10.40;99.90;;;;;;4178312;28;20083;-83
2022/10/09 03:09:11;;;;;;;6.88;6.40;;;10.40;99.90;;;;;;4172551;28;20497;-83
2022/10/09 03:11:32;;;;;;;5.88;5.65;;;10.40;99.90;;;;;;4178551;28;20099;-83
2022/10/09 03:13:53;;;;;;;7.55;7.05;;;10.50;99.90;;;;;;4178933;28;20055;-83
2022/10/09 03:16:20;;;;;;;7.40;6.90;;;10.40;99.90;;;;;;4177356;28;20087;-83
2022/10/09 03:18:42;;;;;;;6.85;6.68;;;10.50;99.90;;;;;;4168676;28;20409;-82
2022/10/09 03:21:07;;;;;;;6.95;6.75;;;10.50;99.90;;;;;;4162285;28;20504;-83
2022/10/09 03:23:29;;;;;;;7.03;6.72;;;10.60;99.90;;;;;;4181075;28;20136;-83
2022/10/09 03:25:59;;;;;;;7.13;6.80;;;10.70;99.90;;;;;;4167183;28;20044;-83
2022/10/09 03:28:20;;;;;;;7.20;6.82;;;10.60;99.90;;;;;;4180169;28;20052;-83
2022/10/09 03:30:43;;;;;;;7.43;7.18;;;10.60;99.90;;;;;;4181950;28;20044;-83
2022/10/09 03:33:04;;;;;;;8.57;8.27;;;10.60;99.90;;;;;;4180755;28;20056;-83
2022/10/09 03:35:24;;;;;;;6.25;6.05;;;10.60;99.90;;;;;;4181529;28;20076;-82
2022/10/09 03:37:44;;;;;;;7.55;7.00;;;10.60;99.90;;;;;;4166129;28;20575;-82
2022/10/09 03:40:06;;;;;;;8.15;7.57;;;10.60;99.90;;;;;;4181648;28;20055;-83
2022/10/09 03:42:27;;;;;;;8.10;7.57;;;10.50;99.90;;;;;;4179560;28;20055;-83
2022/10/09 03:44:48;;;;;;;6.45;6.35;;;10.40;99.90;;;;;;4166717;28;20072;-83
2022/10/09 03:47:08;;;;;;;7.28;6.78;;;10.50;99.90;;;;;;4180569;28;20103;-83
2022/10/09 03:49:29;;;;;;;6.88;6.57;;;10.60;99.90;;;;;;4181796;28;20455;-83
2022/10/09 03:51:51;;;;;;;8.40;7.95;;;10.50;99.90;;;;;;4181789;28;20051;-83
2022/10/09 03:54:12;;;;;;;7.30;6.80;;;10.50;99.90;;;;;;4181275;28;20059;-83
2022/10/09 03:56:34;;;;;;;8.70;8.35;;;10.50;99.90;;;;;;4181427;28;20481;-83
2022/10/09 03:59:19;;;;;;;7.53;7.00;;;10.50;99.90;;;;;;4181228;28;20098;-82
2022/10/09 04:01:40;;;;;;;6.10;5.85;;;10.60;99.90;;;;;;4113972;28;20162;-83
2022/10/09 04:04:01;;;;;;;7.35;6.90;;;10.60;99.90;;;;;;4100261;28;20106;-83
2022/10/09 04:06:22;;;;;;;7.35;6.95;;;10.70;99.90;;;;;;4114182;28;20062;-83
2022/10/09 04:08:42;;;;;;;7.43;7.05;;;10.70;99.90;;;;;;4114506;28;20050;-83
2022/10/09 04:11:02;;;;;;;6.68;6.47;;;10.60;99.90;;;;;;4099694;28;20050;-83
2022/10/09 04:13:23;;;;;;;8.35;8.00;;;10.50;99.90;;;;;;4114211;28;20118;-83
2022/10/09 04:15:50;;;;;;;7.78;7.15;;;10.50;99.90;;;;;;4113982;28;20136;-83
2022/10/09 04:18:10;;;;;;;7.75;7.15;;;10.50;99.90;;;;;;4113565;28;20094;-83
2022/10/09 04:20:32;;;;;;;7.60;7.13;;;10.50;99.90;;;;;;4114563;28;20053;-83
2022/10/09 04:22:52;;;;;;;7.55;7.07;;;10.60;99.90;;;;;;4100662;28;20582;-83
2022/10/09 04:25:14;;;;;;;6.88;6.60;;;10.50;99.90;;;;;;4112657;28;20137;-83
2022/10/09 04:27:35;;;;;;;7.40;6.47;;;10.50;99.90;;;;;;4114164;28;20078;-83
2022/10/09 04:29:56;;;;;;;6.90;6.65;;;10.40;99.90;;;;;;4114188;28;20583;-83
2022/10/09 04:32:17;;;;;;;7.70;7.45;;;10.40;99.90;;;;;;4113140;28;20178;-83
2022/10/09 04:34:38;;;;;;;6.72;6.43;;;10.30;99.90;;;;;;4113660;28;20142;-83
2022/10/09 04:36:58;;;;;;;6.90;6.35;;;10.30;99.90;;;;;;4113746;28;21050;-82
2022/10/09 04:39:19;;;;;;;6.78;6.68;;;10.30;99.90;;;;;;4152145;28;20136;-82
2022/10/09 04:41:40;;;;;;;7.45;7.15;;;10.30;99.90;;;;;;4179943;28;20126;-82
2022/10/09 04:44:01;;;;;;;7.20;7.07;;;10.30;99.90;;;;;;4180333;28;20110;-83
2022/10/09 04:46:24;;;;;;;7.88;7.40;;;10.30;99.90;;;;;;4180686;28;20128;-84
2022/10/09 04:48:45;;;;;;;8.68;6.78;;;10.20;99.90;;;;;;4180324;28;20526;-83
2022/10/09 04:51:06;;;;;;;7.50;7.18;;;10.30;99.90;;;;;;4179358;28;20052;-82
2022/10/09 04:53:26;;;;;;;8.55;6.97;;;10.30;99.90;;;;;;4180263;28;20578;-84
2022/10/09 04:55:49;;;;;;;7.13;6.93;;;10.40;99.90;;;;;;4181330;28;20103;-83
2022/10/09 04:58:11;;;;;;;7.50;7.30;;;10.40;99.90;;;;;;4165701;28;20559;-83
2022/10/09 05:00:32;;;;;;;7.35;7.07;;;10.50;99.90;;;;;;4163697;28;20064;-83
2022/10/09 05:02:52;;;;;;;7.18;6.75;;;10.40;99.90;;;;;;4179725;28;20083;-83
2022/10/09 05:05:13;;;;;;;6.90;6.55;;;10.30;99.90;;;;;;4180031;28;20530;-83
2022/10/09 05:07:35;;;;;;;7.22;6.55;;;10.30;99.90;;;;;;4171135;28;20072;-83
2022/10/09 05:09:56;;;;;;;8.40;7.63;;;10.40;99.90;;;;;;4180630;28;20146;-83
2022/10/09 05:12:17;;;;;;;6.97;6.72;;;10.30;99.90;;;;;;4165003;28;20193;-82
2022/10/09 05:14:37;;;;;;;7.53;7.20;;;10.30;99.90;;;;;;4180431;28;20136;-83
2022/10/09 05:17:01;;;;;;;7.43;7.00;;;10.40;99.90;;;;;;4171761;28;20444;-83
2022/10/09 05:19:34;;;;;;;7.57;7.07;;;10.50;99.90;;;;;;4179101;28;20160;-83
2022/10/09 05:21:54;;;;;;;7.82;7.25;;;10.50;99.90;;;;;;4179721;28;20542;-83
2022/10/09 05:24:15;;;;;;;7.97;7.35;;;10.50;99.90;;;;;;4163702;28;20068;-83
2022/10/09 05:26:37;;;;;;;6.80;6.50;;;10.50;99.90;;;;;;4164718;28;20080;-83
2022/10/09 05:28:58;;;;;;;6.93;6.72;;;10.40;99.90;;;;;;4179966;28;20060;-83
2022/10/09 05:31:24;;;;;;;7.07;6.85;;;10.40;99.90;;;;;;4171725;28;20087;-83
2022/10/09 05:33:46;;;;;;;7.55;7.25;;;10.40;99.90;;;;;;4177363;28;20099;-83
2022/10/09 05:36:08;;;;;;;7.18;6.78;;;10.40;99.90;;;;;;4179676;28;20052;-83
2022/10/09 05:38:31;;;;;;;8.45;7.85;;;10.30;99.90;;;;;;4178840;28;20104;-83
2022/10/09 05:41:05;;;;;;;7.60;7.30;;;10.40;99.90;;;;;;4179994;28;20122;-83
2022/10/09 05:43:32;;;;;;;7.22;6.97;;;10.40;99.90;;;;;;4177816;28;20055;-82
2022/10/09 05:45:53;;;;;;;5.97;5.68;;;10.50;99.90;;;;;;4148093;28;20056;-83
2022/10/09 05:48:13;;;;;;;6.75;6.35;;;10.60;99.90;;;;;;4173538;28;20608;-83
2022/10/09 05:50:34;;;;;;;7.72;7.07;;;10.60;99.90;;;;;;4177329;28;20048;-83
2022/10/09 05:52:55;;;;;;;8.60;8.30;;;10.60;99.90;;;;;;4164957;28;20172;-83
2022/10/09 05:55:16;;;;;;;7.70;7.20;;;10.60;99.90;;;;;;4179521;28;20059;-83
2022/10/09 05:57:38;;;;;;;8.23;7.82;;;10.50;99.90;;;;;;4179328;28;20114;-83
2022/10/09 06:00:00;;;;;;;7.25;6.95;;;10.50;99.90;;;;;;4176406;28;20087;-83
2022/10/09 06:02:20;;;;;;;8.63;8.18;;;10.60;99.90;;;;;;4178262;28;20060;-83
2022/10/09 06:04:41;;;;;;;8.80;8.35;;;10.60;99.90;;;;;;4179307;28;20123;-83
2022/10/09 06:07:02;;;;;;;7.97;7.43;;;10.60;99.90;;;;;;4178896;28;20119;-83
2022/10/09 06:09:24;;;;;;;8.50;7.90;;;10.60;99.90;;;;;;4179165;28;20098;-83
2022/10/09 06:11:45;;;;;;;7.32;6.55;;;10.60;99.90;;;;;;4177980;28;20137;-83
2022/10/09 06:14:08;;;;;;;7.22;6.78;;;10.60;99.90;;;;;;4178387;28;20110;-83
2022/10/09 06:16:31;;;;;;;;;;;10.60;99.90;;;;;;4178708;28;20440;-83
2022/10/09 06:18:52;;;;;;;6.03;5.82;;;10.70;99.90;;;;;;4164150;28;20610;-83
2022/10/09 06:21:14;;;;;;;6.93;6.60;;;10.80;99.90;;;;;;4178392;28;20063;-83
2022/10/09 06:23:36;;;;;;;7.20;6.78;;;10.90;99.90;;;;;;4178174;28;20052;-83
2022/10/09 06:26:02;;;;;;;8.23;7.13;;;10.90;99.90;;;;;;4171929;28;20052;-83
2022/10/09 06:28:24;;;;;;;7.07;6.63;;;10.90;99.90;;;;;;4178630;28;20056;-83
2022/10/09 06:30:46;;;;;;;8.70;8.40;;;11.00;99.90;;;;;;4163557;28;20088;-83
2022/10/09 06:33:07;;;;;;;8.80;8.30;;;10.90;99.90;;;;;;4162559;28;20065;-83
2022/10/09 06:35:27;;;;;;;9.13;8.55;;;10.90;99.90;;;;;;4179157;28;20068;-83
2022/10/09 06:37:48;;;;;;;9.18;8.88;;;10.80;99.90;;;;;;4163770;28;20059;-84
2022/10/09 06:40:10;;;;;;;8.85;8.25;;;10.70;99.90;;;;;;4178118;28;20144;-83
2022/10/09 06:42:59;;;;;;;8.70;8.25;;;10.70;99.90;;;;;;4161914;28;20088;-85
2022/10/09 06:45:50;;;;;;;9.23;8.75;;;10.90;99.90;;;;;;4144449;28;20525;-85
2022/10/09 06:48:11;;;;;;;7.80;7.45;;;11.10;99.90;;;;;;4101851;28;20142;-85
2022/10/09 06:51:01;;;;;;;8.65;7.93;;;11.30;99.90;;;;;;4114010;28;20093;-85
2022/10/09 06:53:24;;;;;;;8.13;7.63;;;11.40;99.90;;;;;;4065158;29;20160;-85
2022/10/09 06:55:54;;;;;;;8.63;8.07;;;11.50;99.90;;;;;;4079030;29;20103;-85
2022/10/09 06:58:45;;;;;;;8.30;7.70;;;11.60;99.90;;;;;;4066013;29;20059;-85
2022/10/09 07:01:22;;;;;;;7.13;6.82;;;11.70;99.90;;;;;;4068595;29;20108;-85
2022/10/09 07:04:34;;;;;;;8.05;7.60;;;11.90;99.90;;;;;;4069995;29;20055;-85
2022/10/09 07:06:55;;;;;;;6.93;6.70;;;12.00;99.90;;;;;;4016184;29;20133;-85
2022/10/09 07:09:40;;;;;;;7.50;7.20;;;12.20;99.90;;;;;;4004770;29;20085;-85
2022/10/09 07:12:01;;;;;;;7.43;7.10;;;12.40;99.90;;;;;;3965139;29;20074;-85
2022/10/09 07:14:47;;;;;;;7.03;6.45;;;12.40;99.90;;;;;;3964466;29;20043;-86
2022/10/09 07:17:45;;;;;;;7.40;6.85;;;12.60;99.90;;;;;;3965103;29;20117;-86
2022/10/09 07:19:59;;;;;;;5.72;5.63;;;12.80;99.90;;;;;;4184140;28;20465;-58
2022/10/09 07:22:19;;;;;;;5.35;5.10;;;12.90;99.90;;;;;;4182432;28;20136;-58
2022/10/09 07:24:46;;;;;;;5.30;4.88;;;13.00;99.90;;;;;;4181601;28;20083;-58
2022/10/09 07:27:07;;;;;;;5.68;5.25;;;13.10;99.90;;;;;;4182294;28;20052;-58
2022/10/09 07:29:27;;;;;;;6.47;5.30;;;13.20;99.90;;;;;;4181786;28;20137;-59
2022/10/09 07:31:48;;;;;;;5.20;5.00;;;13.40;99.90;;;;;;4181420;28;20416;-58
2022/10/09 07:34:10;;;;;;;5.03;4.65;;;13.50;99.90;;;;;;4150857;28;20091;-58
2022/10/09 07:36:31;;;;;;;4.28;4.07;;;13.70;99.90;;;;;;4149013;28;20077;-58
2022/10/09 07:38:54;;;;;;;3.75;3.50;;;13.90;99.90;;;;;;4149705;28;20099;-57
2022/10/09 07:41:14;;;;;;;4.32;4.03;;;14.10;99.90;;;;;;4150215;28;20053;-58
2022/10/09 07:43:40;;;;;;;4.43;4.32;;;14.50;99.90;;;;;;4150053;28;20106;-58
2022/10/09 07:46:02;;;;;;;4.63;3.75;;;14.80;99.90;;;;;;4149525;28;20115;-57
2022/10/09 07:48:23;;;;;;;4.68;4.38;;;15.10;99.90;;;;;;4150599;28;20060;-57
2022/10/09 07:50:44;;;;;;;4.20;4.00;;;15.10;99.90;;;;;;4150911;28;20536;-57
2022/10/09 07:53:04;;;;;;;3.80;3.70;;;15.10;99.90;;;;;;4148387;28;20092;-57
2022/10/09 07:55:25;;;;;;;4.15;3.85;;;15.10;99.90;;;;;;4149466;28;20138;-56
2022/10/09 07:57:46;;;;;;;3.50;3.40;;;15.40;99.90;;;;;;4150670;28;20057;-57
2022/10/09 08:00:10;;;;;;;6.10;4.38;;;15.50;99.90;;;;;;4146222;28;20121;-57
2022/10/09 08:02:30;;;;;;;3.20;3.10;;;15.70;99.90;;;;;;4149000;28;20061;-57
2022/10/09 08:04:51;;;;;;;6.60;3.05;;;15.70;99.90;;;;;;4148927;28;20048;-57
2022/10/09 08:07:12;;;;;;;5.13;3.72;;;15.80;99.90;;;;;;4145074;28;20045;-56
2022/10/09 08:09:32;;;;;;;4.53;3.88;;;15.90;99.90;;;;;;4147504;28;20056;-57
2022/10/09 08:11:53;;;;;;;8.65;4.28;;;15.90;99.90;;;;;;4150178;28;20089;-57
2022/10/09 08:14:14;;;;;;;4.22;4.03;;;16.00;99.90;;;;;;4147342;28;20133;-57
2022/10/09 08:16:38;;;;;;;5.03;4.22;;;16.00;99.90;;;;;;4149352;28;20104;-57
2022/10/09 08:19:00;;;;;;;4.00;3.80;;;16.10;99.90;;;;;;4147695;28;20109;-57
2022/10/09 08:21:21;;;;;;;3.42;2.85;;;16.20;99.90;;;;;;4147961;28;20259;-57
2022/10/09 08:23:42;;;;;;;3.38;3.17;;;16.40;99.90;;;;;;4148169;28;20417;-57
2022/10/09 08:26:04;;;;;;;3.33;3.22;;;16.40;99.90;;;;;;4148712;28;20137;-57
2022/10/09 08:28:25;;;;;;;3.40;3.13;;;16.40;99.90;;;;;;4147859;28;20060;-58
2022/10/09 08:30:46;;;;;;;3.92;3.72;;;16.50;99.90;;;;;;4138030;28;20410;-57
2022/10/09 08:33:07;;;;;;;3.40;3.20;;;16.50;99.90;;;;;;4136343;28;20134;-57
2022/10/09 08:35:27;;;;;;;3.53;3.42;;;16.50;99.90;;;;;;4137313;28;20052;-57
2022/10/09 08:37:53;;;;;;;3.83;3.72;;;16.60;99.90;;;;;;4137851;28;20513;-57
2022/10/09 08:40:26;;;;;;;3.55;3.42;;;16.80;99.90;;;;;;4138343;28;20528;-57
2022/10/09 08:42:55;;;;;;;9.07;3.63;;;17.00;99.90;;;;;;4136276;28;20053;-57
2022/10/09 08:45:17;;;;;;;3.53;2.80;;;17.10;99.90;;;;;;4138744;28;20052;-57
2022/10/09 08:47:49;;;;;;;3.60;2.80;;;17.10;99.90;;;;;;4137942;28;20060;-57
2022/10/09 08:50:15;;;;;;;2.80;2.70;;;17.40;99.90;;;;;;4138943;28;20090;-57
2022/10/09 08:52:40;;;;;;;7.07;3.75;;;17.50;99.90;;;;;;4135705;28;20061;-57
2022/10/09 08:55:11;;;;;;;3.17;2.35;;;17.80;99.90;;;;;;4136190;28;20052;-57
2022/10/09 08:57:33;;;;;;;1.92;1.88;;;18.00;99.90;;;;;;4138296;28;20456;-57
2022/10/09 08:59:53;;;;;;;7.25;2.67;;;17.90;99.90;;;;;;4136386;28;20049;-57
2022/10/09 09:02:47;;;;;;;2.75;2.55;;;18.10;99.90;;;;;;4135058;28;20056;-57
2022/10/09 09:05:23;;;;;;;3.17;2.38;;;18.20;99.90;;;;;;4135449;28;20603;-57
2022/10/09 09:07:54;;;;;;;3.42;2.90;;;18.40;99.90;;;;;;4136736;28;20045;-57
2022/10/09 09:10:54;;;;;;;12.75;4.03;;;18.50;99.90;;;;;;4135502;28;20165;-57
2022/10/09 09:13:14;;;;;;;2.50;2.35;;;18.60;99.90;;;;;;4137992;28;20060;-57
2022/10/09 09:15:51;;;;;;;2.47;1.52;;;18.70;99.90;;;;;;4136793;28;20061;-57
2022/10/09 09:18:24;;;;;;;3.53;1.70;;;18.80;99.90;;;;;;4136250;28;20044;-57
2022/10/09 09:20:52;;;;;;;3.08;2.22;;;18.80;99.90;;;;;;4137573;28;20099;-58
2022/10/09 09:23:15;;;;;;;2.30;2.20;;;18.70;99.90;;;;;;4138396;28;20049;-58
2022/10/09 09:25:40;;;;;;;5.80;2.40;;;18.80;99.90;;;;;;4140696;28;20049;-57
2022/10/09 09:28:32;;;;;;;1.95;1.75;;;18.90;99.90;;;;;;4136151;28;20072;-57
2022/10/09 09:30:59;;;;;;;1.63;1.52;;;19.10;99.90;;;;;;4150743;28;20211;-57
2022/10/09 09:33:58;;;;;;;2.05;1.63;;;19.20;99.90;;;;;;4151491;28;20056;-58
2022/10/09 09:36:34;;;;;;;2.33;2.22;;;19.40;99.90;;;;;;4114383;28;20110;-58
2022/10/09 09:38:55;;;;;;;3.30;2.47;;;19.70;99.90;;;;;;4116536;28;20179;-58
2022/10/09 09:41:35;;;;;;;2.70;2.13;;;19.70;99.90;;;;;;4117938;28;20089;-57
2022/10/09 09:43:56;;;;;;;6.15;2.30;;;19.70;99.90;;;;;;4117015;28;20105;-57
2022/10/09 09:46:20;;;;;;;2.72;2.53;;;19.90;99.90;;;;;;4117226;28;20057;-58
2022/10/09 09:48:44;;;;;;;2.58;2.25;;;20.10;99.90;;;;;;4112750;28;20136;-58
2022/10/09 09:51:11;;;;;;;2.53;1.85;;;20.40;99.90;;;;;;4118105;28;20049;-58
2022/10/09 09:53:53;;;;;;;2.55;2.15;;;20.50;99.90;;;;;;4114413;28;20430;-58
2022/10/09 09:56:14;;;;;;;1.83;1.77;;;20.40;99.90;;;;;;4118946;28;20446;-58
2022/10/09 09:58:51;;;;;;;3.63;1.20;;;20.30;99.90;;;;;;4115129;28;20101;-58
2022/10/09 10:01:27;;;;;;;2.15;1.42;;;20.60;99.90;;;;;;4113031;28;20146;-58
2022/10/09 10:03:49;;;;;;;2.95;1.80;;;20.90;99.90;;;;;;4117815;28;20087;-58
2022/10/09 10:06:31;;;;;;;1.45;1.35;;;21.10;99.90;;;;;;4117014;28;20049;-58
2022/10/09 10:09:11;;;;;;;2.80;1.15;;;21.20;99.90;;;;;;4085858;28;20546;-58
2022/10/09 10:11:34;;;;;;;6.32;1.90;;;21.20;99.90;;;;;;4142164;28;20587;-58
2022/10/09 10:13:55;;;;;;;2.05;1.52;;;20.90;99.90;;;;;;4136422;28;20104;-58
2022/10/09 10:16:27;;;;;;;1.65;1.55;;;21.00;99.90;;;;;;4137142;28;20057;-58
2022/10/09 10:18:48;;;;;;;2.65;1.35;;;21.20;99.90;;;;;;4135177;28;20062;-58
2022/10/09 10:21:16;;;;;;;1.92;1.83;;;21.20;99.90;;;;;;4134940;28;20104;-58
2022/10/09 10:23:49;;;;;;;1.10;1.10;;;21.10;99.90;;;;;;4134780;28;20152;-58
2022/10/09 10:26:33;;;;;;;1.33;1.20;;;21.20;99.90;;;;;;4131011;28;20061;-57
2022/10/09 10:29:00;;;;;;;1.10;1.10;;;21.50;99.90;;;;;;4131740;28;20048;-58
2022/10/09 10:31:54;;;;;;;6.65;1.98;;;21.60;99.90;;;;;;4162358;28;20135;-58
2022/10/09 10:34:23;;;;;;;1.38;1.30;;;21.80;99.90;;;;;;4135825;28;20536;-58
2022/10/09 10:36:45;;;;;;;1.65;1.40;;;22.00;99.90;;;;;;4133054;28;20530;-58
2022/10/09 10:39:16;;;;;;;1.17;1.13;;;22.00;99.90;;;;;;4135207;28;20052;-58
2022/10/09 10:41:44;;;;;;;1.30;1.25;;;21.90;99.90;;;;;;4136073;28;20108;-58
2022/10/09 10:44:19;;;;;;;1.00;1.00;;;22.10;99.90;;;;;;4162579;28;20139;-58
2022/10/09 10:47:09;;;;;;;2.70;1.00;;;22.10;99.90;;;;;;4136879;28;20052;-58
2022/10/09 10:49:30;;;;;;;4.00;1.30;;;22.30;99.90;;;;;;4135181;28;20228;-57
2022/10/09 10:52:25;;;;;;;1.30;1.20;;;22.30;99.90;;;;;;4136456;28;20060;-58
2022/10/09 10:55:18;;;;;;;1.10;1.10;;;22.40;99.90;;;;;;4136701;28;20133;-57
2022/10/09 10:58:00;;;;;;;2.30;1.00;;;22.30;99.90;;;;;;4132949;28;20077;-58
2022/10/09 11:00:21;;;;;;;1.10;1.10;;;22.10;99.90;;;;;;4134218;28;20085;-57
2022/10/09 11:02:54;;;;;;;2.45;1.40;;;22.10;99.90;;;;;;4133921;28;20052;-56
2022/10/09 11:05:21;;;;;;;2.45;1.00;;;22.40;99.90;;;;;;4134149;28;20632;-57
2022/10/09 11:08:05;;;;;;;1.75;1.13;;;22.70;99.90;;;;;;4133930;28;20057;-57
2022/10/09 11:10:44;;;;;;;1.17;1.15;;;23.00;99.90;;;;;;4132885;28;20060;-57
2022/10/09 11:13:16;;;;;;;1.30;1.13;;;22.60;99.90;;;;;;4133828;28;20057;-57
2022/10/09 11:16:31;;;;;;;1.10;1.10;;;22.50;99.90;;;;;;4134339;28;20104;-57
2022/10/09 11:19:16;;;;;;;1.02;1.02;;;22.70;99.90;;;;;;4062398;29;20114;-57
2022/10/09 11:22:01;;;;;;;1.00;1.00;;;22.60;99.90;;;;;;4063047;29;20058;-57
2022/10/09 11:24:49;;;;;;;1.80;1.00;;;22.90;99.90;;;;;;4121935;28;20527;-57
2022/10/09 11:27:31;;;;;;;1.25;1.25;;;22.80;99.90;;;;;;4134442;28;20096;-57
2022/10/09 11:30:03;;;;;;;1.05;0.93;;;22.70;99.90;;;;;;4133461;28;20532;-57
2022/10/09 11:32:32;;;;;;;1.17;1.17;;;22.20;99.90;;;;;;4134254;28;20053;-57
2022/10/09 11:35:19;;;;;;;1.02;1.00;;;21.90;99.90;;;;;;4135888;28;20068;-57
2022/10/09 11:37:42;;;;;;;2.65;0.90;;;21.80;99.90;;;;;;4136322;28;20127;-58
2022/10/09 11:40:15;;;;;;;2.15;1.20;;;21.60;99.90;;;;;;4136462;28;20068;-57
2022/10/09 11:42:36;;;;;;;1.77;1.38;;;21.80;99.90;;;;;;4136546;28;20053;-57
2022/10/09 11:45:34;;;;;;;2.00;1.00;;;21.90;99.90;;;;;;4136508;28;20056;-57
2022/10/09 11:48:06;;;;;;;0.90;0.90;;;21.90;99.90;;;;;;4136100;28;20109;-57
2022/10/09 11:50:27;;;;;;;2.05;1.10;;;22.10;99.90;;;;;;4135950;28;20128;-57
2022/10/09 11:53:12;;;;;;;0.90;0.90;;;22.20;99.90;;;;;;4136447;28;20425;-56
2022/10/09 11:55:33;;;;;;;1.83;1.00;;;21.90;99.90;;;;;;4136228;28;20092;-57
2022/10/09 11:57:53;;;;;;;1.20;1.10;;;22.00;99.90;;;;;;4136184;28;20064;-57
2022/10/09 12:00:15;;;;;;;1.40;1.10;;;21.90;99.90;;;;;;4162293;28;20507;-57
2022/10/09 12:02:37;;;;;;;1.67;1.00;;;22.00;99.90;;;;;;4136823;28;20096;-57
2022/10/09 12:04:58;;;;;;;1.95;1.25;;;22.80;99.90;;;;;;4136284;28;20126;-57
2022/10/09 12:07:34;;;;;;;0.90;0.90;;;22.90;99.90;;;;;;4139798;28;20081;-57
2022/10/09 12:10:21;;;;;;;0.88;0.88;;;23.00;99.90;;;;;;4139749;28;20141;-57
2022/10/09 12:12:42;;;;;;;2.28;1.00;;;23.10;99.90;;;;;;4138200;28;20130;-57
2022/10/09 12:15:26;;;;;;;1.00;1.00;;;22.90;99.90;;;;;;4138960;28;20060;-57
2022/10/09 12:17:48;;;;;;;0.90;0.90;;;22.70;99.90;;;;;;4138604;28;20061;-57
2022/10/09 12:20:17;;;;;;;;;;;22.70;99.90;;;;;;4138929;28;20196;-57
2022/10/09 12:22:44;;;;;;;1.00;1.00;;;22.90;99.90;;;;;;4138612;28;19931;-58
2022/10/09 12:25:37;;;;;;;1.00;1.00;;;23.30;99.90;;;;;;4138837;28;20046;-57
2022/10/09 12:27:59;;;;;;;1.25;1.00;;;22.40;99.90;;;;;;4134621;28;20056;-57
2022/10/09 12:30:22;;;;;;;2.88;1.33;;;22.10;99.90;;;;;;4139082;28;20109;-57
2022/10/09 12:32:46;;;;;;;1.60;0.90;;;22.10;99.90;;;;;;4137850;28;20057;-57
2022/10/09 12:35:34;;;;;;;1.00;1.00;;;22.50;99.90;;;;;;4138327;28;20048;-56
2022/10/09 12:37:55;;;;;;;2.83;0.93;;;22.90;99.90;;;;;;4138741;28;20417;-57
2022/10/09 12:40:27;;;;;;;0.90;0.90;;;22.90;99.90;;;;;;4138668;28;20065;-58
2022/10/09 12:42:51;;;;;;;0.82;0.82;;;23.00;99.90;;;;;;4138948;28;20541;-57
2022/10/09 12:45:42;;;;;;;1.00;1.00;;;23.00;99.90;;;;;;4137417;28;20056;-56